KSUW/SUW METAR and TAF weather

Enter ICAO airport designator
Station Type Date Time Source
KSUW METAR 2019/08/24 20:15 UTC NOAA

KSUW 242015Z AUTO 06008KT 10SM BKN060 19/14 A3020 RMK AO2 T01910141


Station Type Date Time Source
KSUW Decoded METAR 2019/08/24 20:15 UTC NOAA

Station name not available
Aug 24, 2019 - 04:15 PM EDT / 2019.08.24 2015 UTC
Wind: from the ENE (060 degrees) at 9 MPH (8 KT):0
Visibility: 10 mile(s):0
Sky conditions: mostly cloudy
Temperature: 66.4 F (19.1 C)
Dew Point: 57.4 F (14.1 C)
Relative Humidity: 72%
Pressure (altimeter): 30.2 in. Hg (1022 hPa)
ob: KSUW 242015Z AUTO 06008KT 10SM BKN060 19/14 A3020 RMK AO2 T01910141
cycle: 20

Station Type Date Time Source
KSUW TAF UTC NOAA

Error!

Example: see airport list